sensor_id;sensor_type;location;lat;lon;timestamp;temperature;humidity
64396;DHT22;50717;53.360;6.290;2023-04-24T00:01:17;11.40;99.90
64396;DHT22;50717;53.360;6.290;2023-04-24T00:03:44;11.10;99.90
64396;DHT22;50717;53.360;6.290;2023-04-24T00:06:10;11.50;99.90
64396;DHT22;50717;53.360;6.290;2023-04-24T00:08:36;11.60;99.90
64396;DHT22;50717;53.360;6.290;2023-04-24T00:11:01;11.00;99.90
64396;DHT22;50717;53.360;6.290;2023-04-24T00:13:27;11.40;99.90
64396;DHT22;50717;53.360;6.290;2023-04-24T00:15:54;10.40;99.90
64396;DHT22;50717;53.360;6.290;2023-04-24T00:18:20;11.30;99.90
64396;DHT22;50717;53.360;6.290;2023-04-24T00:20:46;10.70;99.90
64396;DHT22;50717;53.360;6.290;2023-04-24T00:23:12;11.70;99.90
64396;DHT22;50717;53.360;6.290;2023-04-24T00:25:38;11.00;99.90
64396;DHT22;50717;53.360;6.290;2023-04-24T00:28:04;11.20;99.90
64396;DHT22;50717;53.360;6.290;2023-04-24T00:30:29;10.50;99.90
64396;DHT22;50717;53.360;6.290;2023-04-24T00:32:55;11.80;99.90
64396;DHT22;50717;53.360;6.290;2023-04-24T00:35:21;11.90;99.90
64396;DHT22;50717;53.360;6.290;2023-04-24T00:37:47;10.90;99.90
64396;DHT22;50717;53.360;6.290;2023-04-24T00:40:12;12.10;99.90
64396;DHT22;50717;53.360;6.290;2023-04-24T00:42:40;11.40;99.90
64396;DHT22;50717;53.360;6.290;2023-04-24T00:45:06;10.50;99.90
64396;DHT22;50717;53.360;6.290;2023-04-24T00:47:33;11.70;99.90
64396;DHT22;50717;53.360;6.290;2023-04-24T00:50:02;11.50;99.90
64396;DHT22;50717;53.360;6.290;2023-04-24T00:52:28;11.50;99.90
64396;DHT22;50717;53.360;6.290;2023-04-24T00:54:56;11.20;99.90
64396;DHT22;50717;53.360;6.290;2023-04-24T00:57:22;11.00;99.90
64396;DHT22;50717;53.360;6.290;2023-04-24T00:59:49;10.70;99.90
64396;DHT22;50717;53.360;6.290;2023-04-24T01:02:15;11.00;99.90
64396;DHT22;50717;53.360;6.290;2023-04-24T01:04:41;11.10;99.90
64396;DHT22;50717;53.360;6.290;2023-04-24T01:07:07;10.80;99.90
64396;DHT22;50717;53.360;6.290;2023-04-24T01:09:37;10.40;99.90
64396;DHT22;50717;53.360;6.290;2023-04-24T01:12:05;10.30;99.90
64396;DHT22;50717;53.360;6.290;2023-04-24T01:14:31;10.70;99.90
64396;DHT22;50717;53.360;6.290;2023-04-24T01:16:57;11.50;99.90
64396;DHT22;50717;53.360;6.290;2023-04-24T01:19:23;10.60;99.90
64396;DHT22;50717;53.360;6.290;2023-04-24T01:21:51;11.20;99.90
64396;DHT22;50717;53.360;6.290;2023-04-24T01:24:19;10.00;99.90
64396;DHT22;50717;53.360;6.290;2023-04-24T01:26:46;10.70;99.90
64396;DHT22;50717;53.360;6.290;2023-04-24T01:29:12;10.80;99.90
64396;DHT22;50717;53.360;6.290;2023-04-24T01:31:39;10.30;99.90
64396;DHT22;50717;53.360;6.290;2023-04-24T01:34:05;10.50;99.90
64396;DHT22;50717;53.360;6.290;2023-04-24T01:36:31;11.10;99.90
64396;DHT22;50717;53.360;6.290;2023-04-24T01:38:57;11.30;99.90
64396;DHT22;50717;53.360;6.290;2023-04-24T01:41:24;10.20;99.90
64396;DHT22;50717;53.360;6.290;2023-04-24T01:43:50;11.30;99.90
64396;DHT22;50717;53.360;6.290;2023-04-24T01:46:16;10.70;99.90
64396;DHT22;50717;53.360;6.290;2023-04-24T01:48:42;11.00;99.90
64396;DHT22;50717;53.360;6.290;2023-04-24T01:51:08;11.20;99.90
64396;DHT22;50717;53.360;6.290;2023-04-24T01:53:33;10.20;99.90
64396;DHT22;50717;53.360;6.290;2023-04-24T01:55:59;10.20;99.90
64396;DHT22;50717;53.360;6.290;2023-04-24T01:58:27;10.90;99.90
64396;DHT22;50717;53.360;6.290;2023-04-24T02:00:52;9.90;99.90
64396;DHT22;50717;53.360;6.290;2023-04-24T02:03:18;10.40;99.90
64396;DHT22;50717;53.360;6.290;2023-04-24T02:05:44;10.90;99.90
64396;DHT22;50717;53.360;6.290;2023-04-24T02:08:10;10.20;99.90
64396;DHT22;50717;53.360;6.290;2023-04-24T02:10:36;10.40;99.90
64396;DHT22;50717;53.360;6.290;2023-04-24T02:13:02;10.50;99.90
64396;DHT22;50717;53.360;6.290;2023-04-24T02:15:27;10.70;99.90
64396;DHT22;50717;53.360;6.290;2023-04-24T02:17:53;10.70;99.90
64396;DHT22;50717;53.360;6.290;2023-04-24T02:20:19;10.40;99.90
64396;DHT22;50717;53.360;6.290;2023-04-24T02:22:44;11.10;99.90
64396;DHT22;50717;53.360;6.290;2023-04-24T02:25:10;10.80;99.90
64396;DHT22;50717;53.360;6.290;2023-04-24T02:27:36;10.50;99.90
64396;DHT22;50717;53.360;6.290;2023-04-24T02:30:02;10.50;99.90
64396;DHT22;50717;53.360;6.290;2023-04-24T02:32:28;10.60;99.90
64396;DHT22;50717;53.360;6.290;2023-04-24T02:34:54;10.00;99.90
64396;DHT22;50717;53.360;6.290;2023-04-24T02:37:20;10.90;99.90
64396;DHT22;50717;53.360;6.290;2023-04-24T02:39:45;10.70;99.90
64396;DHT22;50717;53.360;6.290;2023-04-24T02:42:11;10.70;99.90
64396;DHT22;50717;53.360;6.290;2023-04-24T02:44:36;10.30;99.90
64396;DHT22;50717;53.360;6.290;2023-04-24T02:47:02;10.90;99.90
64396;DHT22;50717;53.360;6.290;2023-04-24T02:49:28;10.00;99.90
64396;DHT22;50717;53.360;6.290;2023-04-24T02:51:54;10.20;99.90
64396;DHT22;50717;53.360;6.290;2023-04-24T02:54:20;10.00;99.90
64396;DHT22;50717;53.360;6.290;2023-04-24T02:56:45;10.20;99.90
64396;DHT22;50717;53.360;6.290;2023-04-24T02:59:11;10.20;99.90
64396;DHT22;50717;53.360;6.290;2023-04-24T03:01:37;10.00;99.90
64396;DHT22;50717;53.360;6.290;2023-04-24T03:04:02;10.40;99.90
64396;DHT22;50717;53.360;6.290;2023-04-24T03:06:28;10.90;99.90
64396;DHT22;50717;53.360;6.290;2023-04-24T03:08:56;10.90;99.90
64396;DHT22;50717;53.360;6.290;2023-04-24T03:11:22;10.80;99.90
64396;DHT22;50717;53.360;6.290;2023-04-24T03:13:48;10.80;99.90
64396;DHT22;50717;53.360;6.290;2023-04-24T03:16:13;10.20;99.90
64396;DHT22;50717;53.360;6.290;2023-04-24T03:18:39;10.20;99.90
64396;DHT22;50717;53.360;6.290;2023-04-24T03:21:05;10.50;99.90
64396;DHT22;50717;53.360;6.290;2023-04-24T03:23:30;10.90;99.90
64396;DHT22;50717;53.360;6.290;2023-04-24T03:25:56;10.70;99.90
64396;DHT22;50717;53.360;6.290;2023-04-24T03:28:22;10.00;99.90
64396;DHT22;50717;53.360;6.290;2023-04-24T03:30:47;10.50;99.90
64396;DHT22;50717;53.360;6.290;2023-04-24T03:33:13;10.20;99.90
64396;DHT22;50717;53.360;6.290;2023-04-24T03:35:39;11.10;99.90
64396;DHT22;50717;53.360;6.290;2023-04-24T03:38:05;10.70;99.90
64396;DHT22;50717;53.360;6.290;2023-04-24T03:40:30;10.00;99.90
64396;DHT22;50717;53.360;6.290;2023-04-24T03:42:58;10.30;99.90
64396;DHT22;50717;53.360;6.290;2023-04-24T03:45:24;10.80;99.90
64396;DHT22;50717;53.360;6.290;2023-04-24T03:47:50;10.70;99.90
64396;DHT22;50717;53.360;6.290;2023-04-24T03:50:15;10.90;99.90
64396;DHT22;50717;53.360;6.290;2023-04-24T03:52:41;11.00;99.90
64396;DHT22;50717;53.360;6.290;2023-04-24T03:55:07;10.20;99.90
64396;DHT22;50717;53.360;6.290;2023-04-24T03:57:33;9.90;99.90
64396;DHT22;50717;53.360;6.290;2023-04-24T03:59:58;10.10;99.90
64396;DHT22;50717;53.360;6.290;2023-04-24T04:02:24;10.10;99.90
64396;DHT22;50717;53.360;6.290;2023-04-24T04:04:50;11.00;99.90
64396;DHT22;50717;53.360;6.290;2023-04-24T04:07:15;10.20;99.90
64396;DHT22;50717;53.360;6.290;2023-04-24T04:09:41;10.00;99.90
64396;DHT22;50717;53.360;6.290;2023-04-24T04:12:07;10.40;99.90
64396;DHT22;50717;53.360;6.290;2023-04-24T04:14:33;8.70;99.90
64396;DHT22;50717;53.360;6.290;2023-04-24T04:16:58;10.60;99.90
64396;DHT22;50717;53.360;6.290;2023-04-24T04:19:24;10.60;99.90
64396;DHT22;50717;53.360;6.290;2023-04-24T04:21:50;10.90;99.90
64396;DHT22;50717;53.360;6.290;2023-04-24T04:24:21;10.70;99.90
64396;DHT22;50717;53.360;6.290;2023-04-24T04:26:48;10.00;99.90
64396;DHT22;50717;53.360;6.290;2023-04-24T04:29:17;10.90;99.90
64396;DHT22;50717;53.360;6.290;2023-04-24T04:31:44;10.40;99.90
64396;DHT22;50717;53.360;6.290;2023-04-24T04:34:10;9.90;99.90
64396;DHT22;50717;53.360;6.290;2023-04-24T04:36:36;9.90;99.90
64396;DHT22;50717;53.360;6.290;2023-04-24T04:39:06;9.90;99.90
64396;DHT22;50717;53.360;6.290;2023-04-24T04:41:32;10.10;99.90
64396;DHT22;50717;53.360;6.290;2023-04-24T04:44:00;10.40;99.90
64396;DHT22;50717;53.360;6.290;2023-04-24T04:46:26;9.80;99.90
64396;DHT22;50717;53.360;6.290;2023-04-24T04:48:53;10.50;99.90
64396;DHT22;50717;53.360;6.290;2023-04-24T04:51:19;9.60;99.90
64396;DHT22;50717;53.360;6.290;2023-04-24T04:53:44;9.60;99.90
64396;DHT22;50717;53.360;6.290;2023-04-24T04:56:10;10.40;99.90
64396;DHT22;50717;53.360;6.290;2023-04-24T04:58:36;10.50;99.90
64396;DHT22;50717;53.360;6.290;2023-04-24T05:01:01;10.60;99.90
64396;DHT22;50717;53.360;6.290;2023-04-24T05:03:27;9.90;99.90
64396;DHT22;50717;53.360;6.290;2023-04-24T05:05:53;9.70;99.90
64396;DHT22;50717;53.360;6.290;2023-04-24T05:08:19;9.60;99.90
64396;DHT22;50717;53.360;6.290;2023-04-24T05:10:45;10.50;99.90
64396;DHT22;50717;53.360;6.290;2023-04-24T05:13:10;10.40;99.90
64396;DHT22;50717;53.360;6.290;2023-04-24T05:15:36;9.80;99.90
64396;DHT22;50717;53.360;6.290;2023-04-24T05:18:02;9.90;99.90
64396;DHT22;50717;53.360;6.290;2023-04-24T05:20:28;9.40;99.90
64396;DHT22;50717;53.360;6.290;2023-04-24T05:22:54;10.50;99.90
64396;DHT22;50717;53.360;6.290;2023-04-24T05:25:19;9.80;99.90
64396;DHT22;50717;53.360;6.290;2023-04-24T05:27:45;9.60;99.90
64396;DHT22;50717;53.360;6.290;2023-04-24T05:30:11;9.30;99.90
64396;DHT22;50717;53.360;6.290;2023-04-24T05:32:37;9.80;99.90
64396;DHT22;50717;53.360;6.290;2023-04-24T05:35:03;9.60;99.90
64396;DHT22;50717;53.360;6.290;2023-04-24T05:37:29;9.40;99.90
64396;DHT22;50717;53.360;6.290;2023-04-24T05:39:55;9.20;99.90
64396;DHT22;50717;53.360;6.290;2023-04-24T05:42:20;10.00;99.90
64396;DHT22;50717;53.360;6.290;2023-04-24T05:44:46;9.80;99.90
64396;DHT22;50717;53.360;6.290;2023-04-24T05:47:12;9.70;99.90
64396;DHT22;50717;53.360;6.290;2023-04-24T05:49:37;10.00;99.90
64396;DHT22;50717;53.360;6.290;2023-04-24T05:52:03;9.30;99.90
64396;DHT22;50717;53.360;6.290;2023-04-24T05:54:30;9.70;99.90
64396;DHT22;50717;53.360;6.290;2023-04-24T05:56:56;9.40;99.90
64396;DHT22;50717;53.360;6.290;2023-04-24T05:59:22;9.10;99.90
64396;DHT22;50717;53.360;6.290;2023-04-24T06:01:48;10.00;99.90
64396;DHT22;50717;53.360;6.290;2023-04-24T06:04:13;9.30;99.90
64396;DHT22;50717;53.360;6.290;2023-04-24T06:06:39;10.30;99.90
64396;DHT22;50717;53.360;6.290;2023-04-24T06:09:05;9.90;99.90
64396;DHT22;50717;53.360;6.290;2023-04-24T06:11:32;9.40;99.90
64396;DHT22;50717;53.360;6.290;2023-04-24T06:13:57;9.60;99.90
64396;DHT22;50717;53.360;6.290;2023-04-24T06:16:23;9.50;99.90
64396;DHT22;50717;53.360;6.290;2023-04-24T06:18:49;9.70;99.90
64396;DHT22;50717;53.360;6.290;2023-04-24T06:21:16;10.00;99.90
64396;DHT22;50717;53.360;6.290;2023-04-24T06:23:42;9.50;99.90
64396;DHT22;50717;53.360;6.290;2023-04-24T06:26:07;9.60;99.90
64396;DHT22;50717;53.360;6.290;2023-04-24T06:28:33;9.70;99.90
64396;DHT22;50717;53.360;6.290;2023-04-24T06:30:58;10.30;99.90
64396;DHT22;50717;53.360;6.290;2023-04-24T06:33:24;10.30;99.90
64396;DHT22;50717;53.360;6.290;2023-04-24T06:35:50;10.30;99.90
64396;DHT22;50717;53.360;6.290;2023-04-24T06:38:16;9.80;99.90
64396;DHT22;50717;53.360;6.290;2023-04-24T06:40:41;10.40;99.90
64396;DHT22;50717;53.360;6.290;2023-04-24T06:43:07;10.40;99.90
64396;DHT22;50717;53.360;6.290;2023-04-24T06:45:33;9.80;99.90
64396;DHT22;50717;53.360;6.290;2023-04-24T06:47:59;10.30;99.90
64396;DHT22;50717;53.360;6.290;2023-04-24T06:50:24;9.80;99.90
64396;DHT22;50717;53.360;6.290;2023-04-24T06:52:50;10.30;99.90
64396;DHT22;50717;53.360;6.290;2023-04-24T06:55:16;9.30;99.90
64396;DHT22;50717;53.360;6.290;2023-04-24T07:02:47;9.50;99.90
64396;DHT22;50717;53.360;6.290;2023-04-24T07:05:13;9.80;99.90
64396;DHT22;50717;53.360;6.290;2023-04-24T07:07:40;9.70;99.90
64396;DHT22;50717;53.360;6.290;2023-04-24T07:10:07;9.60;99.90
64396;DHT22;50717;53.360;6.290;2023-04-24T07:12:33;10.00;99.90
64396;DHT22;50717;53.360;6.290;2023-04-24T07:15:00;9.40;99.90
64396;DHT22;50717;53.360;6.290;2023-04-24T07:17:26;9.90;99.90
64396;DHT22;50717;53.360;6.290;2023-04-24T07:19:51;9.30;99.90
64396;DHT22;50717;53.360;6.290;2023-04-24T07:22:17;9.60;99.90
64396;DHT22;50717;53.360;6.290;2023-04-24T07:24:46;9.80;99.90
64396;DHT22;50717;53.360;6.290;2023-04-24T07:27:11;9.70;99.90
64396;DHT22;50717;53.360;6.290;2023-04-24T07:29:37;9.80;99.90
64396;DHT22;50717;53.360;6.290;2023-04-24T07:32:03;10.10;99.90
64396;DHT22;50717;53.360;6.290;2023-04-24T07:34:29;9.50;99.90
64396;DHT22;50717;53.360;6.290;2023-04-24T07:36:55;10.00;99.90
64396;DHT22;50717;53.360;6.290;2023-04-24T07:39:21;10.00;99.90
64396;DHT22;50717;53.360;6.290;2023-04-24T07:41:46;9.70;99.90
64396;DHT22;50717;53.360;6.290;2023-04-24T07:44:12;9.60;99.90
64396;DHT22;50717;53.360;6.290;2023-04-24T07:46:38;9.50;99.90
64396;DHT22;50717;53.360;6.290;2023-04-24T07:49:04;9.50;99.90
64396;DHT22;50717;53.360;6.290;2023-04-24T07:51:29;9.50;99.90
64396;DHT22;50717;53.360;6.290;2023-04-24T07:53:56;9.70;99.90
64396;DHT22;50717;53.360;6.290;2023-04-24T07:56:22;10.00;99.90
64396;DHT22;50717;53.360;6.290;2023-04-24T07:58:47;10.30;99.90
64396;DHT22;50717;53.360;6.290;2023-04-24T08:01:13;9.20;99.90
64396;DHT22;50717;53.360;6.290;2023-04-24T08:03:39;9.60;99.90
64396;DHT22;50717;53.360;6.290;2023-04-24T08:06:05;9.60;99.90
64396;DHT22;50717;53.360;6.290;2023-04-24T08:08:30;9.40;99.90
64396;DHT22;50717;53.360;6.290;2023-04-24T08:10:56;9.80;99.90
64396;DHT22;50717;53.360;6.290;2023-04-24T08:13:22;9.60;99.90
64396;DHT22;50717;53.360;6.290;2023-04-24T08:15:48;9.90;99.90
64396;DHT22;50717;53.360;6.290;2023-04-24T08:18:13;9.40;99.90
64396;DHT22;50717;53.360;6.290;2023-04-24T08:20:41;9.70;99.90
64396;DHT22;50717;53.360;6.290;2023-04-24T08:23:07;9.40;99.90
64396;DHT22;50717;53.360;6.290;2023-04-24T08:25:33;9.50;99.90
64396;DHT22;50717;53.360;6.290;2023-04-24T08:28:01;9.80;99.90
64396;DHT22;50717;53.360;6.290;2023-04-24T08:30:28;9.30;99.90
64396;DHT22;50717;53.360;6.290;2023-04-24T08:32:53;9.60;99.90
64396;DHT22;50717;53.360;6.290;2023-04-24T08:35:19;9.30;99.90
64396;DHT22;50717;53.360;6.290;2023-04-24T08:37:45;9.80;99.90
64396;DHT22;50717;53.360;6.290;2023-04-24T08:40:15;9.60;99.90
64396;DHT22;50717;53.360;6.290;2023-04-24T08:42:44;9.40;99.90
64396;DHT22;50717;53.360;6.290;2023-04-24T08:45:12;9.30;99.90
64396;DHT22;50717;53.360;6.290;2023-04-24T08:47:41;9.40;99.90
64396;DHT22;50717;53.360;6.290;2023-04-24T08:50:08;9.90;99.90
64396;DHT22;50717;53.360;6.290;2023-04-24T08:52:35;9.70;99.90
64396;DHT22;50717;53.360;6.290;2023-04-24T08:55:01;9.60;99.90
64396;DHT22;50717;53.360;6.290;2023-04-24T08:57:28;9.70;99.90
64396;DHT22;50717;53.360;6.290;2023-04-24T08:59:54;10.00;99.90
64396;DHT22;50717;53.360;6.290;2023-04-24T09:02:21;9.90;99.90
64396;DHT22;50717;53.360;6.290;2023-04-24T09:04:47;10.40;99.90
64396;DHT22;50717;53.360;6.290;2023-04-24T09:07:15;10.00;99.90
64396;DHT22;50717;53.360;6.290;2023-04-24T09:09:42;9.80;99.90
64396;DHT22;50717;53.360;6.290;2023-04-24T09:12:08;10.00;99.90
64396;DHT22;50717;53.360;6.290;2023-04-24T09:14:36;10.00;99.90
64396;DHT22;50717;53.360;6.290;2023-04-24T09:17:06;10.00;99.90
64396;DHT22;50717;53.360;6.290;2023-04-24T09:19:31;9.60;99.90
64396;DHT22;50717;53.360;6.290;2023-04-24T09:21:57;9.80;99.90
64396;DHT22;50717;53.360;6.290;2023-04-24T09:24:23;9.80;99.90
64396;DHT22;50717;53.360;6.290;2023-04-24T09:26:56;9.70;99.90
64396;DHT22;50717;53.360;6.290;2023-04-24T09:29:27;10.00;99.90
64396;DHT22;50717;53.360;6.290;2023-04-24T09:31:53;10.00;99.90
64396;DHT22;50717;53.360;6.290;2023-04-24T09:34:23;10.00;99.90
64396;DHT22;50717;53.360;6.290;2023-04-24T09:36:49;10.20;99.90
64396;DHT22;50717;53.360;6.290;2023-04-24T09:39:16;10.40;99.90
64396;DHT22;50717;53.360;6.290;2023-04-24T09:41:52;10.60;99.90
64396;DHT22;50717;53.360;6.290;2023-04-24T09:44:24;10.50;99.90
64396;DHT22;50717;53.360;6.290;2023-04-24T09:46:55;11.00;99.90
64396;DHT22;50717;53.360;6.290;2023-04-24T09:49:28;11.00;99.90
64396;DHT22;50717;53.360;6.290;2023-04-24T09:54:29;10.50;99.90
64396;DHT22;50717;53.360;6.290;2023-04-24T09:56:55;10.80;99.90
64396;DHT22;50717;53.360;6.290;2023-04-24T09:59:22;10.50;99.90
64396;DHT22;50717;53.360;6.290;2023-04-24T10:01:48;10.70;99.90
64396;DHT22;50717;53.360;6.290;2023-04-24T10:04:26;10.60;99.90
64396;DHT22;50717;53.360;6.290;2023-04-24T10:06:54;12.00;99.90
64396;DHT22;50717;53.360;6.290;2023-04-24T10:09:23;10.50;99.90
64396;DHT22;50717;53.360;6.290;2023-04-24T10:11:51;10.80;99.90
64396;DHT22;50717;53.360;6.290;2023-04-24T10:14:21;10.70;99.90
64396;DHT22;50717;53.360;6.290;2023-04-24T10:16:48;11.10;99.90
64396;DHT22;50717;53.360;6.290;2023-04-24T10:19:15;11.20;99.90
64396;DHT22;50717;53.360;6.290;2023-04-24T10:21:43;11.20;99.90
64396;DHT22;50717;53.360;6.290;2023-04-24T10:24:16;11.10;99.90
64396;DHT22;50717;53.360;6.290;2023-04-24T10:26:43;10.90;99.90
64396;DHT22;50717;53.360;6.290;2023-04-24T10:29:10;11.20;99.90
64396;DHT22;50717;53.360;6.290;2023-04-24T10:31:38;11.10;99.90
64396;DHT22;50717;53.360;6.290;2023-04-24T10:34:08;10.70;99.90
64396;DHT22;50717;53.360;6.290;2023-04-24T10:36:36;11.10;99.90
64396;DHT22;50717;53.360;6.290;2023-04-24T10:39:07;11.20;99.90
64396;DHT22;50717;53.360;6.290;2023-04-24T10:41:37;10.70;99.90
64396;DHT22;50717;53.360;6.290;2023-04-24T10:44:13;10.60;99.90
64396;DHT22;50717;53.360;6.290;2023-04-24T10:46:43;11.00;99.90
64396;DHT22;50717;53.360;6.290;2023-04-24T10:49:09;10.90;99.90
64396;DHT22;50717;53.360;6.290;2023-04-24T10:51:52;11.30;99.90
64396;DHT22;50717;53.360;6.290;2023-04-24T10:56:51;11.10;99.90
64396;DHT22;50717;53.360;6.290;2023-04-24T10:59:27;10.90;99.90
64396;DHT22;50717;53.360;6.290;2023-04-24T11:02:00;10.80;99.90
64396;DHT22;50717;53.360;6.290;2023-04-24T11:04:30;11.10;99.90
64396;DHT22;50717;53.360;6.290;2023-04-24T11:06:57;11.00;99.90
64396;DHT22;50717;53.360;6.290;2023-04-24T11:09:26;10.90;99.90
64396;DHT22;50717;53.360;6.290;2023-04-24T11:12:08;11.20;99.90
64396;DHT22;50717;53.360;6.290;2023-04-24T11:17:31;10.60;99.90
64396;DHT22;50717;53.360;6.290;2023-04-24T11:20:09;10.60;99.90
64396;DHT22;50717;53.360;6.290;2023-04-24T11:22:36;10.50;99.90
64396;DHT22;50717;53.360;6.290;2023-04-24T11:25:03;10.20;99.90
64396;DHT22;50717;53.360;6.290;2023-04-24T11:27:47;10.50;99.90
64396;DHT22;50717;53.360;6.290;2023-04-24T11:30:17;10.30;99.90
64396;DHT22;50717;53.360;6.290;2023-04-24T11:32:47;10.30;99.90
64396;DHT22;50717;53.360;6.290;2023-04-24T11:35:19;10.40;99.90
64396;DHT22;50717;53.360;6.290;2023-04-24T11:37:51;10.20;99.90
64396;DHT22;50717;53.360;6.290;2023-04-24T11:40:18;10.00;99.90
64396;DHT22;50717;53.360;6.290;2023-04-24T11:42:52;10.30;99.90
64396;DHT22;50717;53.360;6.290;2023-04-24T11:45:23;10.20;99.90
64396;DHT22;50717;53.360;6.290;2023-04-24T11:47:49;10.30;99.90
64396;DHT22;50717;53.360;6.290;2023-04-24T11:50:17;10.10;99.90
64396;DHT22;50717;53.360;6.290;2023-04-24T11:52:45;10.10;99.90
64396;DHT22;50717;53.360;6.290;2023-04-24T11:57:42;10.10;99.90
64396;DHT22;50717;53.360;6.290;2023-04-24T12:00:19;10.00;99.90
64396;DHT22;50717;53.360;6.290;2023-04-24T12:02:46;10.10;99.90
64396;DHT22;50717;53.360;6.290;2023-04-24T12:05:25;10.40;99.90
64396;DHT22;50717;53.360;6.290;2023-04-24T12:07:51;10.20;99.90
64396;DHT22;50717;53.360;6.290;2023-04-24T12:10:25;10.30;99.90
64396;DHT22;50717;53.360;6.290;2023-04-24T12:12:51;10.30;99.90
64396;DHT22;50717;53.360;6.290;2023-04-24T12:15:19;10.20;99.90
64396;DHT22;50717;53.360;6.290;2023-04-24T12:17:45;10.10;99.90
64396;DHT22;50717;53.360;6.290;2023-04-24T12:20:11;10.00;99.90
64396;DHT22;50717;53.360;6.290;2023-04-24T12:22:46;10.20;99.90
64396;DHT22;50717;53.360;6.290;2023-04-24T12:25:13;9.60;99.90
64396;DHT22;50717;53.360;6.290;2023-04-24T12:27:39;10.00;99.90
64396;DHT22;50717;53.360;6.290;2023-04-24T12:30:09;10.10;99.90
64396;DHT22;50717;53.360;6.290;2023-04-24T12:32:35;10.30;99.90
64396;DHT22;50717;53.360;6.290;2023-04-24T12:35:00;10.10;99.90
64396;DHT22;50717;53.360;6.290;2023-04-24T12:37:32;10.00;99.90
64396;DHT22;50717;53.360;6.290;2023-04-24T12:40:10;9.90;99.90
64396;DHT22;50717;53.360;6.290;2023-04-24T12:42:46;10.10;99.90
64396;DHT22;50717;53.360;6.290;2023-04-24T12:45:14;10.20;99.90
64396;DHT22;50717;53.360;6.290;2023-04-24T12:47:41;10.10;99.90
64396;DHT22;50717;53.360;6.290;2023-04-24T12:50:12;11.50;99.90
64396;DHT22;50717;53.360;6.290;2023-04-24T12:52:38;10.50;99.90
64396;DHT22;50717;53.360;6.290;2023-04-24T12:55:04;9.80;99.90
64396;DHT22;50717;53.360;6.290;2023-04-24T12:57:34;9.80;99.90
64396;DHT22;50717;53.360;6.290;2023-04-24T13:00:00;9.60;99.90
64396;DHT22;50717;53.360;6.290;2023-04-24T13:02:27;10.00;99.90
64396;DHT22;50717;53.360;6.290;2023-04-24T13:04:53;9.60;99.90
64396;DHT22;50717;53.360;6.290;2023-04-24T13:07:19;10.00;99.90
64396;DHT22;50717;53.360;6.290;2023-04-24T13:09:45;9.50;99.90
64396;DHT22;50717;53.360;6.290;2023-04-24T13:12:11;9.80;99.90
64396;DHT22;50717;53.360;6.290;2023-04-24T13:14:38;10.10;99.90
64396;DHT22;50717;53.360;6.290;2023-04-24T13:17:04;10.30;99.90
64396;DHT22;50717;53.360;6.290;2023-04-24T13:19:35;10.30;99.90
64396;DHT22;50717;53.360;6.290;2023-04-24T13:22:01;10.30;99.90
64396;DHT22;50717;53.360;6.290;2023-04-24T13:24:27;10.60;99.90
64396;DHT22;50717;53.360;6.290;2023-04-24T13:26:53;10.30;99.90
64396;DHT22;50717;53.360;6.290;2023-04-24T13:29:19;10.50;99.90
64396;DHT22;50717;53.360;6.290;2023-04-24T13:31:49;10.30;99.90
64396;DHT22;50717;53.360;6.290;2023-04-24T13:34:15;10.60;99.90
64396;DHT22;50717;53.360;6.290;2023-04-24T13:36:41;10.30;99.90
64396;DHT22;50717;53.360;6.290;2023-04-24T13:39:07;9.90;99.90
64396;DHT22;50717;53.360;6.290;2023-04-24T13:41:33;10.00;99.90
64396;DHT22;50717;53.360;6.290;2023-04-24T13:43:59;9.70;99.90
64396;DHT22;50717;53.360;6.290;2023-04-24T13:46:25;9.70;99.90
64396;DHT22;50717;53.360;6.290;2023-04-24T13:48:51;9.60;99.90
64396;DHT22;50717;53.360;6.290;2023-04-24T13:51:17;9.70;99.90
64396;DHT22;50717;53.360;6.290;2023-04-24T13:53:43;9.30;99.90
64396;DHT22;50717;53.360;6.290;2023-04-24T13:56:09;9.30;99.90
64396;DHT22;50717;53.360;6.290;2023-04-24T13:58:35;9.40;99.90
64396;DHT22;50717;53.360;6.290;2023-04-24T14:01:02;9.40;99.90
64396;DHT22;50717;53.360;6.290;2023-04-24T14:03:28;9.90;99.90
64396;DHT22;50717;53.360;6.290;2023-04-24T14:05:54;10.00;99.90
64396;DHT22;50717;53.360;6.290;2023-04-24T14:08:20;10.00;99.90
64396;DHT22;50717;53.360;6.290;2023-04-24T14:10:46;10.10;99.90
64396;DHT22;50717;53.360;6.290;2023-04-24T14:13:12;10.10;99.90
64396;DHT22;50717;53.360;6.290;2023-04-24T14:15:38;9.80;99.90
64396;DHT22;50717;53.360;6.290;2023-04-24T14:18:03;9.40;99.90
64396;DHT22;50717;53.360;6.290;2023-04-24T14:20:29;9.90;99.90
64396;DHT22;50717;53.360;6.290;2023-04-24T14:22:56;9.60;99.90
64396;DHT22;50717;53.360;6.290;2023-04-24T14:25:24;9.90;99.90
64396;DHT22;50717;53.360;6.290;2023-04-24T14:27:50;9.80;99.90
64396;DHT22;50717;53.360;6.290;2023-04-24T14:30:16;9.40;99.90
64396;DHT22;50717;53.360;6.290;2023-04-24T14:32:42;9.40;99.90
64396;DHT22;50717;53.360;6.290;2023-04-24T14:35:08;9.30;99.90
64396;DHT22;50717;53.360;6.290;2023-04-24T14:37:33;9.50;99.90
64396;DHT22;50717;53.360;6.290;2023-04-24T14:39:59;9.60;99.90
64396;DHT22;50717;53.360;6.290;2023-04-24T14:42:25;9.10;99.90
64396;DHT22;50717;53.360;6.290;2023-04-24T14:44:51;9.10;99.90
64396;DHT22;50717;53.360;6.290;2023-04-24T14:47:16;8.70;99.90
64396;DHT22;50717;53.360;6.290;2023-04-24T14:49:43;9.10;99.90
64396;DHT22;50717;53.360;6.290;2023-04-24T14:52:09;8.80;99.90
64396;DHT22;50717;53.360;6.290;2023-04-24T14:54:35;9.00;99.90
64396;DHT22;50717;53.360;6.290;2023-04-24T14:57:01;8.50;99.90
64396;DHT22;50717;53.360;6.290;2023-04-24T14:59:27;8.60;99.90
64396;DHT22;50717;53.360;6.290;2023-04-24T15:01:53;8.80;99.90
64396;DHT22;50717;53.360;6.290;2023-04-24T15:04:24;8.70;99.90
64396;DHT22;50717;53.360;6.290;2023-04-24T15:06:52;8.80;99.90
64396;DHT22;50717;53.360;6.290;2023-04-24T15:09:19;9.00;99.90
64396;DHT22;50717;53.360;6.290;2023-04-24T15:11:45;8.90;99.90
64396;DHT22;50717;53.360;6.290;2023-04-24T15:14:11;9.20;99.90
64396;DHT22;50717;53.360;6.290;2023-04-24T15:16:37;9.30;99.90
64396;DHT22;50717;53.360;6.290;2023-04-24T15:19:03;8.80;99.90
64396;DHT22;50717;53.360;6.290;2023-04-24T15:21:28;9.00;99.90
64396;DHT22;50717;53.360;6.290;2023-04-24T15:23:54;9.00;99.90
64396;DHT22;50717;53.360;6.290;2023-04-24T15:26:20;8.90;99.90
64396;DHT22;50717;53.360;6.290;2023-04-24T15:28:46;8.90;99.90
64396;DHT22;50717;53.360;6.290;2023-04-24T15:31:12;8.90;99.90
64396;DHT22;50717;53.360;6.290;2023-04-24T15:33:38;8.90;99.90
64396;DHT22;50717;53.360;6.290;2023-04-24T15:36:04;9.50;99.90
64396;DHT22;50717;53.360;6.290;2023-04-24T15:38:30;8.90;99.90
64396;DHT22;50717;53.360;6.290;2023-04-24T15:40:56;9.00;99.90
64396;DHT22;50717;53.360;6.290;2023-04-24T15:43:22;9.00;99.90
64396;DHT22;50717;53.360;6.290;2023-04-24T15:45:50;9.10;99.90
64396;DHT22;50717;53.360;6.290;2023-04-24T15:48:16;8.80;99.90
64396;DHT22;50717;53.360;6.290;2023-04-24T15:50:42;9.30;99.90